createdAt,value
2022-09-07T00:00:49.829Z,20.60
2022-09-07T00:03:19.363Z,20.58
2022-09-07T00:05:49.517Z,20.54
2022-09-07T00:08:19.392Z,20.53
2022-09-07T00:10:53.810Z,20.56
2022-09-07T00:13:21.737Z,20.46
2022-09-07T00:15:49.898Z,20.44
2022-09-07T00:18:19.337Z,20.41
2022-09-07T00:20:47.571Z,20.39
2022-09-07T00:23:15.488Z,20.33
2022-09-07T00:25:43.438Z,20.26
2022-09-07T00:28:11.309Z,20.22
2022-09-07T00:30:42.370Z,20.19
2022-09-07T00:33:10.907Z,20.20
2022-09-07T00:35:43.875Z,20.23
2022-09-07T00:38:11.789Z,20.28
2022-09-07T00:40:39.752Z,20.28
2022-09-07T00:43:08.249Z,20.31
2022-09-07T00:45:36.231Z,20.33
2022-09-07T00:48:06.742Z,20.32
2022-09-07T00:50:40.832Z,20.33
2022-09-07T00:53:14.809Z,20.32
2022-09-07T00:55:44.760Z,20.39
2022-09-07T00:58:13.108Z,20.28
2022-09-07T01:00:42.421Z,20.23
2022-09-07T01:03:11.812Z,20.25
2022-09-07T01:05:43.313Z,20.24
2022-09-07T01:08:13.390Z,20.23
2022-09-07T01:10:41.729Z,20.24
2022-09-07T01:13:09.725Z,20.25
2022-09-07T01:15:45.133Z,20.25
2022-09-07T01:18:21.732Z,20.26
2022-09-07T01:21:01.952Z,20.19
2022-09-07T01:24:03.672Z,20.13
2022-09-07T01:27:09.888Z,20.11
2022-09-07T01:29:43.233Z,20.11
2022-09-07T01:32:14.842Z,20.14
2022-09-07T01:34:44.497Z,20.10
2022-09-07T01:37:18.194Z,20.11
2022-09-07T01:39:53.277Z,20.05
2022-09-07T01:42:23.022Z,20.04
2022-09-07T01:44:56.681Z,20.02
2022-09-07T01:47:30.173Z,20.00
2022-09-07T01:50:04.850Z,19.93
2022-09-07T01:52:36.929Z,19.95
2022-09-07T01:55:08.599Z,19.92
2022-09-07T01:57:42.202Z,19.93
2022-09-07T02:00:14.397Z,19.93
2022-09-07T02:02:45.874Z,19.93
2022-09-07T02:05:15.745Z,19.93
2022-09-07T02:07:46.966Z,19.94
2022-09-07T02:10:17.980Z,19.94
2022-09-07T02:12:49.431Z,19.96
2022-09-07T02:15:20.399Z,19.95
2022-09-07T02:17:51.459Z,19.93
2022-09-07T02:20:21.512Z,19.91
2022-09-07T02:22:51.564Z,19.91
2022-09-07T02:25:23.420Z,19.87
2022-09-07T02:27:53.057Z,19.85
2022-09-07T02:30:22.431Z,19.83
2022-09-07T02:32:50.593Z,19.83
2022-09-07T02:35:19.084Z,19.81
2022-09-07T02:37:47.086Z,19.84
2022-09-07T02:40:15.854Z,19.78
2022-09-07T02:42:44.703Z,19.77
2022-09-07T02:45:14.302Z,19.78
2022-09-07T02:47:54.580Z,19.81
2022-09-07T02:50:33.202Z,19.84
2022-09-07T02:53:14.722Z,19.83
2022-09-07T02:55:47.590Z,19.86
2022-09-07T02:58:23.285Z,19.97
2022-09-07T03:00:56.737Z,19.82
2022-09-07T03:03:32.155Z,19.71
2022-09-07T03:06:02.872Z,19.68
2022-09-07T03:08:33.379Z,19.69
2022-09-07T03:11:01.901Z,19.45
2022-09-07T03:13:31.042Z,19.40
2022-09-07T03:15:59.141Z,19.41
2022-09-07T03:18:29.216Z,19.45
2022-09-07T03:20:57.302Z,19.34
2022-09-07T03:23:28.298Z,19.28
2022-09-07T03:25:56.662Z,19.33
2022-09-07T03:28:24.636Z,19.21
2022-09-07T03:30:52.713Z,19.24
2022-09-07T03:33:20.653Z,19.26
2022-09-07T03:35:58.733Z,19.27
2022-09-07T03:38:26.714Z,19.20
2022-09-07T03:41:06.191Z,19.16
2022-09-07T03:43:35.088Z,18.99
2022-09-07T03:46:05.420Z,18.96
2022-09-07T03:48:34.445Z,18.97
2022-09-07T03:51:05.293Z,18.99
2022-09-07T03:53:34.156Z,19.05
2022-09-07T03:56:03.531Z,19.10
2022-09-07T03:58:32.749Z,19.10
2022-09-07T04:01:01.850Z,19.09
2022-09-07T04:03:30.208Z,19.06
2022-09-07T04:05:59.797Z,18.96
2022-09-07T04:08:30.462Z,18.88
2022-09-07T04:10:58.748Z,18.84
2022-09-07T04:13:27.285Z,18.82
2022-09-07T04:15:55.495Z,18.81
2022-09-07T04:18:24.348Z,18.80
2022-09-07T04:20:53.599Z,18.83
2022-09-07T04:23:21.875Z,18.88
2022-09-07T04:25:52.962Z,18.89
2022-09-07T04:28:21.741Z,18.86
2022-09-07T04:30:49.681Z,18.81
2022-09-07T04:33:17.729Z,18.89
2022-09-07T04:35:45.696Z,18.84
2022-09-07T04:38:15.398Z,18.82
2022-09-07T04:40:43.369Z,18.76
2022-09-07T04:43:14.093Z,18.76
2022-09-07T04:45:42.079Z,18.76
2022-09-07T04:48:10.038Z,18.77
2022-09-07T04:50:38.034Z,18.75
2022-09-07T04:53:06.010Z,18.80
2022-09-07T04:55:33.952Z,18.84
2022-09-07T04:58:02.188Z,18.87
2022-09-07T05:00:32.134Z,18.89
2022-09-07T05:03:00.152Z,18.83
2022-09-07T05:05:28.399Z,18.74
2022-09-07T05:07:56.624Z,18.66
2022-09-07T05:10:24.811Z,18.60
2022-09-07T05:12:52.814Z,18.60
2022-09-07T05:15:20.874Z,18.60
2022-09-07T05:17:51.085Z,18.58
2022-09-07T05:20:20.421Z,18.57
2022-09-07T05:22:48.680Z,18.58
2022-09-07T05:25:16.665Z,18.63
2022-09-07T05:27:44.812Z,18.60
2022-09-07T05:33:05.190Z,18.59
2022-09-07T05:35:33.149Z,18.61
2022-09-07T05:38:01.133Z,18.63
2022-09-07T05:40:35.131Z,18.64
2022-09-07T05:43:05.573Z,18.65
2022-09-07T05:45:33.534Z,18.70
2022-09-07T05:48:01.452Z,18.78
2022-09-07T05:50:30.812Z,18.82
2022-09-07T05:52:59.967Z,18.84
2022-09-07T05:55:30.880Z,18.85
2022-09-07T05:57:59.131Z,18.88
2022-09-07T06:00:27.317Z,18.91
2022-09-07T06:02:55.417Z,18.99
2022-09-07T06:05:23.662Z,19.03
2022-09-07T06:07:54.163Z,19.07
2022-09-07T06:13:09.989Z,19.17
2022-09-07T06:15:37.933Z,19.21
2022-09-07T06:18:05.938Z,19.28
2022-09-07T06:20:33.956Z,19.29
2022-09-07T06:23:03.319Z,19.30
2022-09-07T06:25:31.625Z,19.36
2022-09-07T06:27:59.710Z,19.42
2022-09-07T06:30:28.233Z,19.49
2022-09-07T06:32:56.304Z,19.57
2022-09-07T06:35:24.297Z,19.69
2022-09-07T06:37:52.500Z,19.79
2022-09-07T06:40:22.888Z,19.95
2022-09-07T06:42:50.949Z,20.12
2022-09-07T06:45:18.978Z,20.24
2022-09-07T06:47:47.252Z,20.41
2022-09-07T06:50:16.669Z,20.61
2022-09-07T06:55:33.961Z,21.04
2022-09-07T06:58:01.876Z,21.28
2022-09-07T07:00:29.861Z,21.52
2022-09-07T07:02:57.836Z,21.76
2022-09-07T07:05:25.921Z,22.02
2022-09-07T07:07:54.165Z,22.15
2022-09-07T07:10:25.102Z,22.25
2022-09-07T07:12:58.230Z,22.32
2022-09-07T07:15:28.105Z,22.42
2022-09-07T07:18:02.632Z,22.48
2022-09-07T07:20:42.807Z,22.48
2022-09-07T07:23:12.626Z,22.44
2022-09-07T07:25:40.569Z,22.55
2022-09-07T07:30:59.049Z,22.62
2022-09-07T07:33:30.924Z,22.82
2022-09-07T07:36:09.633Z,22.96
2022-09-07T07:44:19.533Z,23.63
2022-09-07T07:46:49.358Z,23.78
2022-09-07T07:49:18.191Z,23.95
2022-09-07T07:54:36.948Z,24.40
2022-09-07T07:57:05.978Z,24.53
2022-09-07T07:59:35.463Z,24.54
2022-09-07T08:02:05.368Z,24.69
2022-09-07T08:04:33.962Z,24.72
2022-09-07T08:07:05.582Z,24.91
2022-09-07T08:09:38.062Z,25.10
2022-09-07T08:12:06.477Z,25.19
2022-09-07T08:14:41.133Z,25.26
2022-09-07T08:17:10.435Z,25.44
2022-09-07T08:19:38.530Z,25.54
2022-09-07T08:22:06.483Z,25.52
2022-09-07T08:24:34.842Z,25.73
2022-09-07T08:27:03.615Z,25.71
2022-09-07T08:29:35.165Z,25.70
2022-09-07T08:32:06.691Z,25.74
2022-09-07T08:34:37.164Z,25.76
2022-09-07T08:37:05.439Z,25.76
2022-09-07T08:39:33.653Z,25.76
2022-09-07T08:42:21.046Z,25.85
2022-09-07T08:44:51.976Z,26.02
2022-09-07T08:47:31.759Z,26.21
2022-09-07T08:50:05.269Z,26.23
2022-09-07T08:52:44.144Z,26.22
2022-09-07T08:55:17.096Z,26.29
2022-09-07T08:57:48.931Z,26.32
2022-09-07T09:00:19.143Z,26.20
2022-09-07T09:05:43.350Z,26.04
2022-09-07T09:08:37.590Z,26.15
2022-09-07T09:11:10.174Z,26.19
2022-09-07T09:13:48.154Z,26.20
2022-09-07T09:16:19.824Z,26.34
2022-09-07T09:19:00.916Z,26.41
2022-09-07T09:21:29.165Z,26.35
2022-09-07T09:24:01.972Z,26.44
2022-09-07T09:26:32.209Z,26.62
2022-09-07T09:29:00.169Z,26.61
2022-09-07T09:31:33.796Z,26.71
2022-09-07T09:34:11.796Z,26.90
2022-09-07T09:36:45.793Z,26.99
2022-09-07T09:39:31.987Z,27.03
2022-09-07T09:42:02.925Z,27.11
2022-09-07T09:44:34.516Z,27.05
2022-09-07T09:49:55.457Z,27.06
2022-09-07T09:52:29.925Z,27.12
2022-09-07T09:55:23.605Z,27.06
2022-09-07T10:03:55.942Z,27.05
2022-09-07T10:06:27.785Z,26.89
2022-09-07T10:08:58.685Z,26.68
2022-09-07T10:14:37.772Z,27.05
2022-09-07T10:17:15.771Z,26.98
2022-09-07T10:19:50.423Z,26.80
2022-09-07T10:22:26.431Z,26.84
2022-09-07T10:24:54.423Z,26.88
2022-09-07T10:27:31.046Z,26.91
2022-09-07T10:29:59.611Z,26.88
2022-09-07T10:32:41.862Z,27.04
2022-09-07T10:35:16.269Z,27.15
2022-09-07T10:37:57.072Z,27.27
2022-09-07T10:40:35.234Z,27.44
2022-09-07T10:43:23.797Z,27.61
2022-09-07T10:46:56.366Z,27.69
2022-09-07T10:49:15.511Z,27.65
2022-09-07T10:51:59.280Z,27.91
2022-09-07T10:54:36.919Z,28.16
2022-09-07T10:57:10.750Z,28.16
2022-09-07T11:03:24.986Z,28.11
2022-09-07T11:05:38.478Z,28.16
2022-09-07T11:08:16.557Z,28.23
2022-09-07T11:10:49.845Z,28.27
2022-09-07T11:13:20.392Z,28.21
2022-09-07T11:15:51.595Z,28.14
2022-09-07T11:18:25.116Z,28.07
2022-09-07T11:20:56.221Z,27.92
2022-09-07T11:23:30.101Z,27.73
2022-09-07T11:26:03.533Z,27.65
2022-09-07T11:28:44.167Z,27.74
2022-09-07T11:31:18.834Z,27.84
2022-09-07T11:36:50.150Z,27.68
2022-09-07T11:39:21.693Z,27.45
2022-09-07T11:41:58.059Z,27.43
2022-09-07T11:44:27.664Z,27.28
2022-09-07T11:47:00.294Z,27.50
2022-09-07T11:49:28.746Z,27.61
2022-09-07T11:51:58.209Z,27.53
2022-09-07T11:54:42.988Z,27.61
2022-09-07T11:57:41.872Z,27.76
2022-09-07T12:00:12.892Z,28.14
2022-09-07T12:03:04.939Z,28.54
2022-09-07T12:05:52.516Z,28.60
2022-09-07T12:08:27.511Z,28.36
2022-09-07T12:11:04.521Z,28.12
2022-09-07T12:13:44.407Z,28.26
2022-09-07T12:16:19.041Z,28.52
2022-09-07T12:19:13.759Z,28.77
2022-09-07T12:21:44.401Z,29.05
2022-09-07T12:24:34.706Z,29.25
2022-09-07T12:27:03.172Z,29.46
2022-09-07T12:29:33.441Z,29.63
2022-09-07T12:34:54.723Z,29.79
2022-09-07T12:37:52.528Z,29.67
2022-09-07T12:40:49.035Z,29.34
2022-09-07T12:43:36.613Z,29.17
2022-09-07T12:46:19.691Z,29.25
2022-09-07T12:48:54.809Z,29.24
2022-09-07T12:54:25.310Z,29.58
2022-09-07T13:00:01.550Z,29.22
2022-09-07T13:02:46.517Z,29.32
2022-09-07T13:05:20.308Z,29.39
2022-09-07T13:08:08.991Z,29.53
2022-09-07T13:10:38.726Z,29.53
2022-09-07T13:13:08.064Z,29.71
2022-09-07T13:15:41.375Z,29.91
2022-09-07T13:18:14.013Z,29.97
2022-09-07T13:20:41.961Z,30.00
2022-09-07T13:23:24.882Z,30.01
2022-09-07T13:25:56.041Z,29.84
2022-09-07T13:28:28.744Z,29.82
2022-09-07T13:31:42.096Z,29.71
2022-09-07T13:34:39.863Z,29.58
2022-09-07T13:37:16.292Z,29.58
2022-09-07T13:39:47.496Z,29.56
2022-09-07T13:42:21.075Z,29.47
2022-09-07T13:44:57.089Z,29.18
2022-09-07T13:47:38.597Z,29.07
2022-09-07T13:50:25.155Z,28.99
2022-09-07T13:53:08.852Z,29.09
2022-09-07T13:55:42.409Z,29.05
2022-09-07T13:58:17.143Z,29.23
2022-09-07T14:00:55.716Z,29.32
2022-09-07T14:03:25.642Z,29.32
2022-09-07T14:06:15.737Z,29.31
2022-09-07T14:08:48.460Z,29.40
2022-09-07T14:11:20.621Z,29.50
2022-09-07T14:14:07.348Z,29.40
2022-09-07T14:16:35.586Z,29.39
2022-09-07T14:19:09.950Z,29.32
2022-09-07T14:21:39.329Z,29.37
2022-09-07T14:24:09.228Z,29.30
2022-09-07T14:26:37.092Z,29.42
2022-09-07T14:29:05.092Z,29.53
2022-09-07T14:31:33.072Z,29.49
2022-09-07T14:34:02.204Z,29.47
2022-09-07T14:36:48.496Z,29.42
2022-09-07T14:39:19.629Z,29.47
2022-09-07T14:41:48.163Z,29.53
2022-09-07T14:44:33.766Z,29.48
2022-09-07T14:47:05.721Z,29.43
2022-09-07T14:49:33.889Z,29.34
2022-09-07T14:52:02.142Z,29.31
2022-09-07T14:54:32.946Z,29.23
2022-09-07T14:57:06.817Z,29.11
2022-09-07T14:59:43.302Z,28.97
2022-09-07T15:02:33.307Z,28.88
2022-09-07T15:05:25.781Z,28.81
2022-09-07T15:07:56.224Z,28.81
2022-09-07T15:10:42.113Z,28.75
2022-09-07T15:13:30.258Z,28.79
2022-09-07T15:16:01.316Z,28.83
2022-09-07T15:18:57.677Z,28.93
2022-09-07T15:21:28.773Z,28.96
2022-09-07T15:23:58.717Z,28.97
2022-09-07T15:29:20.697Z,28.88
2022-09-07T15:32:01.149Z,28.85
2022-09-07T15:34:32.465Z,28.69
2022-09-07T15:37:01.722Z,28.55
2022-09-07T15:39:31.123Z,28.49
2022-09-07T15:42:59.087Z,28.42
2022-09-07T15:44:50.024Z,28.28
2022-09-07T15:50:08.113Z,28.03
2022-09-07T15:52:36.163Z,27.92
2022-09-07T15:55:04.105Z,27.93
2022-09-07T15:57:51.172Z,27.87
2022-09-07T16:00:20.961Z,27.79
2022-09-07T16:03:05.759Z,27.77
2022-09-07T16:05:34.890Z,27.72
2022-09-07T16:11:04.479Z,27.65
2022-09-07T16:13:34.604Z,27.74
2022-09-07T16:16:02.418Z,27.71
2022-09-07T16:18:31.837Z,27.76
2022-09-07T16:21:06.714Z,27.74
2022-09-07T16:23:34.671Z,27.68
2022-09-07T16:26:05.422Z,27.56
2022-09-07T16:28:35.306Z,27.54
2022-09-07T16:31:06.824Z,27.45
2022-09-07T16:33:37.001Z,27.36
2022-09-07T16:36:07.226Z,27.16
2022-09-07T16:38:44.462Z,27.13
2022-09-07T16:41:14.727Z,27.04
2022-09-07T16:43:44.036Z,26.90
2022-09-07T16:46:13.691Z,26.84
2022-09-07T16:48:42.175Z,26.72
2022-09-07T16:51:11.685Z,26.61
2022-09-07T16:53:39.825Z,26.62
2022-09-07T16:56:09.312Z,26.56
2022-09-07T16:58:39.032Z,26.59
2022-09-07T17:01:10.083Z,26.48
2022-09-07T17:03:38.647Z,26.47
2022-09-07T17:06:08.094Z,26.45
2022-09-07T17:08:37.049Z,26.43
2022-09-07T17:11:06.613Z,26.34
2022-09-07T17:13:35.973Z,26.35
2022-09-07T17:16:05.507Z,26.28
2022-09-07T17:21:23.389Z,26.16
2022-09-07T17:23:55.542Z,26.09
2022-09-07T17:26:27.327Z,26.11
2022-09-07T17:28:59.786Z,26.07
2022-09-07T17:34:19.572Z,26.01
2022-09-07T17:36:47.635Z,25.95
2022-09-07T17:39:19.499Z,25.89
2022-09-07T17:41:49.593Z,25.81
2022-09-07T17:44:17.689Z,25.70
2022-09-07T17:46:45.578Z,25.66
2022-09-07T17:49:16.353Z,25.53
2022-09-07T17:51:47.922Z,25.45
2022-09-07T17:54:27.508Z,25.33
2022-09-07T17:56:55.438Z,25.29
2022-09-07T18:02:13.841Z,25.16
2022-09-07T18:04:42.742Z,25.15
2022-09-07T18:07:12.278Z,25.10
2022-09-07T18:09:40.509Z,25.11
2022-09-07T18:12:10.486Z,25.10
2022-09-07T18:14:38.450Z,25.05
2022-09-07T18:17:06.756Z,25.03
2022-09-07T18:19:36.343Z,25.01
2022-09-07T18:22:05.028Z,25.03
2022-09-07T18:24:36.929Z,24.97
2022-09-07T18:27:05.695Z,24.89
2022-09-07T18:29:34.506Z,24.83
2022-09-07T18:32:05.592Z,24.80
2022-09-07T18:34:35.823Z,24.77
2022-09-07T18:37:03.688Z,24.74
2022-09-07T18:39:32.374Z,24.73
2022-09-07T18:42:01.629Z,24.66
2022-09-07T18:47:28.056Z,24.61
2022-09-07T18:49:57.606Z,24.44
2022-09-07T18:55:13.689Z,24.36
2022-09-07T18:57:42.946Z,24.15
2022-09-07T19:00:13.118Z,24.09
2022-09-07T19:02:42.184Z,24.02
2022-09-07T19:07:59.561Z,23.94
2022-09-07T19:10:27.585Z,23.90
2022-09-07T19:12:56.858Z,23.88
2022-09-07T19:15:24.699Z,23.82
2022-09-07T19:17:52.595Z,23.81
2022-09-07T19:20:20.583Z,23.78
2022-09-07T19:22:49.050Z,23.72
2022-09-07T19:25:17.460Z,23.58
2022-09-07T19:27:45.537Z,23.52
2022-09-07T19:30:17.430Z,23.46
2022-09-07T19:32:45.527Z,23.39
2022-09-07T19:35:13.403Z,23.35
2022-09-07T19:37:41.184Z,23.27
2022-09-07T19:40:12.716Z,23.18
2022-09-07T19:42:44.852Z,23.15
2022-09-07T19:45:15.105Z,23.05
2022-09-07T19:47:42.976Z,22.93
2022-09-07T19:50:11.138Z,23.08
2022-09-07T19:52:39.132Z,23.01
2022-09-07T19:55:08.080Z,23.04
2022-09-07T19:57:35.876Z,22.99
2022-09-07T20:00:04.594Z,23.00
2022-09-07T20:02:34.831Z,22.98
2022-09-07T20:05:02.796Z,23.00
2022-09-07T20:07:30.874Z,23.00
2022-09-07T20:09:58.660Z,22.90
2022-09-07T20:12:26.921Z,22.88
2022-09-07T20:14:54.865Z,22.79
2022-09-07T20:17:22.920Z,22.79
2022-09-07T20:19:52.182Z,22.83
2022-09-07T20:22:20.284Z,22.86
2022-09-07T20:24:48.916Z,22.89
2022-09-07T20:27:16.714Z,22.89
2022-09-07T20:29:44.810Z,22.87
2022-09-07T20:32:13.462Z,22.84
2022-09-07T20:34:41.288Z,22.86
2022-09-07T20:37:10.534Z,22.85
2022-09-07T20:39:39.505Z,22.82
2022-09-07T20:42:07.991Z,22.81
2022-09-07T20:44:35.836Z,22.70
2022-09-07T20:47:03.823Z,22.62
2022-09-07T20:49:32.063Z,22.60
2022-09-07T20:51:59.866Z,22.59
2022-09-07T20:54:29.059Z,22.60
2022-09-07T20:57:00.001Z,22.56
2022-09-07T20:59:29.898Z,22.55
2022-09-07T21:01:58.028Z,22.51
2022-09-07T21:04:27.429Z,22.46
2022-09-07T21:06:55.378Z,22.47
2022-09-07T21:09:23.164Z,22.47
2022-09-07T21:11:56.785Z,22.39
2022-09-07T21:14:25.398Z,22.34
2022-09-07T21:16:53.193Z,22.30
2022-09-07T21:19:21.209Z,22.23
2022-09-07T21:21:49.350Z,22.19
2022-09-07T21:24:19.370Z,22.19
2022-09-07T21:26:48.337Z,22.16
2022-09-07T21:29:20.243Z,22.15
2022-09-07T21:31:48.652Z,22.10
2022-09-07T21:34:17.362Z,22.12
2022-09-07T21:36:45.458Z,22.16
2022-09-07T21:39:14.888Z,22.19
2022-09-07T21:41:43.127Z,22.22
2022-09-07T21:44:12.820Z,22.23
2022-09-07T21:46:43.135Z,22.20
2022-09-07T21:49:11.270Z,22.16
2022-09-07T21:51:39.251Z,22.12
2022-09-07T21:54:07.455Z,21.98
2022-09-07T21:56:35.662Z,21.89
2022-09-07T21:59:04.698Z,21.83
2022-09-07T22:01:32.921Z,21.80
2022-09-07T22:04:04.526Z,21.83
2022-09-07T22:06:33.248Z,21.87
2022-09-07T22:09:01.710Z,21.90
2022-09-07T22:11:30.527Z,21.91
2022-09-07T22:14:00.356Z,21.91
2022-09-07T22:16:28.439Z,21.88
2022-09-07T22:18:56.426Z,21.86
2022-09-07T22:21:27.699Z,21.86
2022-09-07T22:23:57.101Z,21.88
2022-09-07T22:26:26.753Z,21.92
2022-09-07T22:28:54.878Z,21.92
2022-09-07T22:31:24.629Z,21.89
2022-09-07T22:33:54.095Z,21.87
2022-09-07T22:36:23.448Z,21.83
2022-09-07T22:38:55.953Z,21.82
2022-09-07T22:41:26.573Z,21.79
2022-09-07T22:43:54.605Z,21.78
2022-09-07T22:46:24.425Z,21.68
2022-09-07T22:48:54.119Z,21.61
2022-09-07T22:51:23.234Z,21.54
2022-09-07T22:53:52.596Z,21.51
2022-09-07T22:56:22.201Z,21.45
2022-09-07T22:58:52.126Z,21.45
2022-09-07T23:01:20.586Z,21.45
2022-09-07T23:03:48.822Z,21.44
2022-09-07T23:06:24.471Z,21.41
2022-09-07T23:08:54.853Z,21.42
2022-09-07T23:11:25.749Z,21.41
2022-09-07T23:13:53.984Z,21.39
2022-09-07T23:16:22.640Z,21.36
2022-09-07T23:18:50.546Z,21.33
2022-09-07T23:21:18.371Z,21.27
2022-09-07T23:23:50.680Z,21.16
2022-09-07T23:26:20.384Z,21.08
2022-09-07T23:28:52.285Z,20.96
2022-09-07T23:31:20.866Z,20.91
2022-09-07T23:33:49.694Z,20.84
2022-09-07T23:36:19.429Z,20.73
2022-09-07T23:38:47.991Z,20.76
2022-09-07T23:41:18.287Z,20.70
2022-09-07T23:43:48.997Z,20.66
2022-09-07T23:46:18.536Z,20.63
2022-09-07T23:48:48.631Z,20.58
2022-09-07T23:51:22.795Z,20.54
2022-09-07T23:53:51.802Z,20.58
2022-09-07T23:56:19.655Z,20.65
2022-09-07T23:58:48.932Z,20.71
